sensor_id;sensor_type;location;lat;lon;timestamp;P1;durP1;ratioP1;P2;durP2;ratioP2
68509;SDS011;55512;50.102;19.958;2024-03-29T00:00:56;3.00;;;0.80;;
68509;SDS011;55512;50.102;19.958;2024-03-29T00:03:22;3.60;;;0.90;;
68509;SDS011;55512;50.102;19.958;2024-03-29T00:05:47;2.50;;;0.70;;
68509;SDS011;55512;50.102;19.958;2024-03-29T00:08:13;2.90;;;1.00;;
68509;SDS011;55512;50.102;19.958;2024-03-29T00:10:38;3.00;;;0.70;;
68509;SDS011;55512;50.102;19.958;2024-03-29T00:13:04;2.60;;;0.80;;
68509;SDS011;55512;50.102;19.958;2024-03-29T00:15:32;2.30;;;0.60;;
68509;SDS011;55512;50.102;19.958;2024-03-29T00:17:58;3.20;;;1.00;;
68509;SDS011;55512;50.102;19.958;2024-03-29T00:20:24;3.80;;;1.10;;
68509;SDS011;55512;50.102;19.958;2024-03-29T00:22:49;4.70;;;1.50;;
68509;SDS011;55512;50.102;19.958;2024-03-29T00:25:15;4.30;;;1.70;;
68509;SDS011;55512;50.102;19.958;2024-03-29T00:27:40;4.40;;;1.60;;
68509;SDS011;55512;50.102;19.958;2024-03-29T00:30:06;5.00;;;1.60;;
68509;SDS011;55512;50.102;19.958;2024-03-29T00:32:32;4.90;;;1.80;;
68509;SDS011;55512;50.102;19.958;2024-03-29T00:34:57;4.20;;;1.50;;
68509;SDS011;55512;50.102;19.958;2024-03-29T00:37:23;6.10;;;2.20;;
68509;SDS011;55512;50.102;19.958;2024-03-29T00:39:49;3.80;;;1.30;;
68509;SDS011;55512;50.102;19.958;2024-03-29T00:42:15;5.70;;;1.90;;
68509;SDS011;55512;50.102;19.958;2024-03-29T00:44:42;5.70;;;1.50;;
68509;SDS011;55512;50.102;19.958;2024-03-29T00:47:08;4.10;;;1.70;;
68509;SDS011;55512;50.102;19.958;2024-03-29T00:49:34;4.40;;;1.50;;
68509;SDS011;55512;50.102;19.958;2024-03-29T00:52:01;5.50;;;1.90;;
68509;SDS011;55512;50.102;19.958;2024-03-29T00:54:27;5.00;;;1.90;;
68509;SDS011;55512;50.102;19.958;2024-03-29T00:56:52;4.40;;;1.80;;
68509;SDS011;55512;50.102;19.958;2024-03-29T00:59:18;4.70;;;1.60;;
68509;SDS011;55512;50.102;19.958;2024-03-29T01:01:45;4.30;;;1.50;;
68509;SDS011;55512;50.102;19.958;2024-03-29T01:04:11;6.50;;;1.80;;
68509;SDS011;55512;50.102;19.958;2024-03-29T01:06:37;3.70;;;1.20;;
68509;SDS011;55512;50.102;19.958;2024-03-29T01:09:04;4.00;;;1.30;;
68509;SDS011;55512;50.102;19.958;2024-03-29T01:11:30;4.60;;;1.60;;
68509;SDS011;55512;50.102;19.958;2024-03-29T01:13:56;5.40;;;1.60;;
68509;SDS011;55512;50.102;19.958;2024-03-29T01:16:22;4.10;;;1.20;;
68509;SDS011;55512;50.102;19.958;2024-03-29T01:18:47;4.60;;;1.70;;
68509;SDS011;55512;50.102;19.958;2024-03-29T01:21:13;7.10;;;1.90;;
68509;SDS011;55512;50.102;19.958;2024-03-29T01:23:39;5.80;;;2.60;;
68509;SDS011;55512;50.102;19.958;2024-03-29T01:26:06;5.90;;;2.30;;
68509;SDS011;55512;50.102;19.958;2024-03-29T01:28:32;5.20;;;2.40;;
68509;SDS011;55512;50.102;19.958;2024-03-29T01:30:58;6.50;;;2.60;;
68509;SDS011;55512;50.102;19.958;2024-03-29T01:33:24;7.30;;;2.80;;
68509;SDS011;55512;50.102;19.958;2024-03-29T01:35:50;5.30;;;2.30;;
68509;SDS011;55512;50.102;19.958;2024-03-29T01:38:15;6.10;;;2.10;;
68509;SDS011;55512;50.102;19.958;2024-03-29T01:40:41;5.50;;;2.50;;
68509;SDS011;55512;50.102;19.958;2024-03-29T01:43:06;5.70;;;2.10;;
68509;SDS011;55512;50.102;19.958;2024-03-29T01:45:35;4.90;;;1.90;;
68509;SDS011;55512;50.102;19.958;2024-03-29T01:48:04;6.50;;;2.10;;
68509;SDS011;55512;50.102;19.958;2024-03-29T01:50:33;5.40;;;2.10;;
68509;SDS011;55512;50.102;19.958;2024-03-29T01:52:59;6.30;;;2.60;;
68509;SDS011;55512;50.102;19.958;2024-03-29T01:55:25;6.10;;;2.50;;
68509;SDS011;55512;50.102;19.958;2024-03-29T01:57:52;6.70;;;2.40;;
68509;SDS011;55512;50.102;19.958;2024-03-29T02:00:18;5.20;;;2.00;;
68509;SDS011;55512;50.102;19.958;2024-03-29T02:02:44;5.40;;;1.80;;
68509;SDS011;55512;50.102;19.958;2024-03-29T02:05:10;5.50;;;2.20;;
68509;SDS011;55512;50.102;19.958;2024-03-29T02:07:36;5.10;;;2.00;;
68509;SDS011;55512;50.102;19.958;2024-03-29T02:10:02;5.10;;;1.90;;
68509;SDS011;55512;50.102;19.958;2024-03-29T02:12:29;5.60;;;2.10;;
68509;SDS011;55512;50.102;19.958;2024-03-29T02:14:54;6.40;;;2.30;;
68509;SDS011;55512;50.102;19.958;2024-03-29T02:17:21;4.60;;;1.80;;
68509;SDS011;55512;50.102;19.958;2024-03-29T02:19:46;4.10;;;1.70;;
68509;SDS011;55512;50.102;19.958;2024-03-29T02:22:15;3.80;;;1.70;;
68509;SDS011;55512;50.102;19.958;2024-03-29T02:24:40;5.00;;;1.90;;
68509;SDS011;55512;50.102;19.958;2024-03-29T02:27:06;6.50;;;2.20;;
68509;SDS011;55512;50.102;19.958;2024-03-29T02:29:31;5.40;;;1.70;;
68509;SDS011;55512;50.102;19.958;2024-03-29T02:31:57;4.40;;;1.60;;
68509;SDS011;55512;50.102;19.958;2024-03-29T02:34:22;5.20;;;1.80;;
68509;SDS011;55512;50.102;19.958;2024-03-29T02:36:48;4.70;;;1.40;;
68509;SDS011;55512;50.102;19.958;2024-03-29T02:39:14;5.40;;;1.70;;
68509;SDS011;55512;50.102;19.958;2024-03-29T02:41:39;4.00;;;1.10;;
68509;SDS011;55512;50.102;19.958;2024-03-29T02:44:04;4.40;;;1.50;;
68509;SDS011;55512;50.102;19.958;2024-03-29T02:46:30;4.80;;;1.60;;
68509;SDS011;55512;50.102;19.958;2024-03-29T02:48:55;4.50;;;1.30;;
68509;SDS011;55512;50.102;19.958;2024-03-29T02:51:21;3.10;;;1.20;;
68509;SDS011;55512;50.102;19.958;2024-03-29T02:53:46;4.20;;;1.30;;
68509;SDS011;55512;50.102;19.958;2024-03-29T02:56:11;4.40;;;1.30;;
68509;SDS011;55512;50.102;19.958;2024-03-29T02:58:39;2.50;;;1.20;;
68509;SDS011;55512;50.102;19.958;2024-03-29T03:01:06;4.50;;;1.20;;
68509;SDS011;55512;50.102;19.958;2024-03-29T03:03:32;4.90;;;1.00;;
68509;SDS011;55512;50.102;19.958;2024-03-29T03:05:57;4.90;;;1.30;;
68509;SDS011;55512;50.102;19.958;2024-03-29T03:08:23;3.10;;;1.10;;
68509;SDS011;55512;50.102;19.958;2024-03-29T03:11:07;2.50;;;0.90;;
68509;SDS011;55512;50.102;19.958;2024-03-29T03:13:32;4.00;;;0.80;;
68509;SDS011;55512;50.102;19.958;2024-03-29T03:15:57;2.90;;;1.20;;
68509;SDS011;55512;50.102;19.958;2024-03-29T03:18:23;4.50;;;1.10;;
68509;SDS011;55512;50.102;19.958;2024-03-29T03:20:52;4.50;;;1.50;;
68509;SDS011;55512;50.102;19.958;2024-03-29T03:23:18;2.80;;;1.00;;
68509;SDS011;55512;50.102;19.958;2024-03-29T03:25:45;2.90;;;1.00;;
68509;SDS011;55512;50.102;19.958;2024-03-29T03:28:11;3.20;;;0.90;;
68509;SDS011;55512;50.102;19.958;2024-03-29T03:30:41;3.20;;;1.10;;
68509;SDS011;55512;50.102;19.958;2024-03-29T03:33:06;3.10;;;1.00;;
68509;SDS011;55512;50.102;19.958;2024-03-29T03:35:31;2.60;;;0.90;;
68509;SDS011;55512;50.102;19.958;2024-03-29T03:37:57;2.70;;;0.90;;
68509;SDS011;55512;50.102;19.958;2024-03-29T03:40:22;3.80;;;1.10;;
68509;SDS011;55512;50.102;19.958;2024-03-29T03:42:48;3.90;;;1.20;;
68509;SDS011;55512;50.102;19.958;2024-03-29T03:45:13;3.10;;;0.90;;
68509;SDS011;55512;50.102;19.958;2024-03-29T03:47:40;3.10;;;1.30;;
68509;SDS011;55512;50.102;19.958;2024-03-29T03:50:05;3.70;;;1.10;;
68509;SDS011;55512;50.102;19.958;2024-03-29T03:52:30;3.50;;;0.90;;
68509;SDS011;55512;50.102;19.958;2024-03-29T03:54:56;3.00;;;0.80;;
68509;SDS011;55512;50.102;19.958;2024-03-29T03:57:21;2.90;;;1.00;;
68509;SDS011;55512;50.102;19.958;2024-03-29T03:59:49;4.60;;;1.10;;
68509;SDS011;55512;50.102;19.958;2024-03-29T04:02:15;2.50;;;0.90;;
68509;SDS011;55512;50.102;19.958;2024-03-29T04:04:41;3.30;;;0.90;;
68509;SDS011;55512;50.102;19.958;2024-03-29T04:07:06;3.00;;;1.10;;
68509;SDS011;55512;50.102;19.958;2024-03-29T04:09:32;3.30;;;0.90;;
68509;SDS011;55512;50.102;19.958;2024-03-29T04:11:57;3.60;;;1.10;;
68509;SDS011;55512;50.102;19.958;2024-03-29T04:14:23;3.00;;;1.00;;
68509;SDS011;55512;50.102;19.958;2024-03-29T04:16:48;3.90;;;0.90;;
68509;SDS011;55512;50.102;19.958;2024-03-29T04:19:14;2.50;;;0.90;;
68509;SDS011;55512;50.102;19.958;2024-03-29T04:21:39;3.00;;;1.10;;
68509;SDS011;55512;50.102;19.958;2024-03-29T04:24:05;3.00;;;1.30;;
68509;SDS011;55512;50.102;19.958;2024-03-29T04:26:33;2.80;;;0.70;;
68509;SDS011;55512;50.102;19.958;2024-03-29T04:28:58;3.10;;;0.80;;
68509;SDS011;55512;50.102;19.958;2024-03-29T04:31:23;3.70;;;1.00;;
68509;SDS011;55512;50.102;19.958;2024-03-29T04:33:49;4.90;;;1.50;;
68509;SDS011;55512;50.102;19.958;2024-03-29T04:36:14;2.90;;;1.00;;
68509;SDS011;55512;50.102;19.958;2024-03-29T04:38:40;4.60;;;1.20;;
68509;SDS011;55512;50.102;19.958;2024-03-29T04:41:06;2.60;;;1.10;;
68509;SDS011;55512;50.102;19.958;2024-03-29T04:43:31;4.00;;;1.50;;
68509;SDS011;55512;50.102;19.958;2024-03-29T04:46:07;5.30;;;1.50;;
68509;SDS011;55512;50.102;19.958;2024-03-29T04:48:35;8.40;;;3.10;;
68509;SDS011;55512;50.102;19.958;2024-03-29T04:51:01;12.60;;;6.30;;
68509;SDS011;55512;50.102;19.958;2024-03-29T04:53:27;9.90;;;4.70;;
68509;SDS011;55512;50.102;19.958;2024-03-29T04:55:59;6.90;;;2.40;;
68509;SDS011;55512;50.102;19.958;2024-03-29T04:58:27;4.70;;;1.60;;
68509;SDS011;55512;50.102;19.958;2024-03-29T05:00:53;4.30;;;1.50;;
68509;SDS011;55512;50.102;19.958;2024-03-29T05:03:20;3.90;;;1.30;;
68509;SDS011;55512;50.102;19.958;2024-03-29T05:05:47;4.50;;;1.60;;
68509;SDS011;55512;50.102;19.958;2024-03-29T05:08:15;5.90;;;2.40;;
68509;SDS011;55512;50.102;19.958;2024-03-29T05:10:40;5.30;;;2.40;;
68509;SDS011;55512;50.102;19.958;2024-03-29T05:13:06;3.80;;;1.50;;
68509;SDS011;55512;50.102;19.958;2024-03-29T05:15:32;5.80;;;1.30;;
68509;SDS011;55512;50.102;19.958;2024-03-29T05:17:58;6.90;;;1.20;;
68509;SDS011;55512;50.102;19.958;2024-03-29T05:20:23;5.40;;;1.30;;
68509;SDS011;55512;50.102;19.958;2024-03-29T05:22:48;4.30;;;1.60;;
68509;SDS011;55512;50.102;19.958;2024-03-29T05:25:14;3.90;;;1.40;;
68509;SDS011;55512;50.102;19.958;2024-03-29T05:27:39;4.10;;;1.50;;
68509;SDS011;55512;50.102;19.958;2024-03-29T05:30:05;4.60;;;1.30;;
68509;SDS011;55512;50.102;19.958;2024-03-29T05:32:32;4.10;;;1.30;;
68509;SDS011;55512;50.102;19.958;2024-03-29T05:34:57;4.70;;;1.30;;
68509;SDS011;55512;50.102;19.958;2024-03-29T05:37:23;3.50;;;1.40;;
68509;SDS011;55512;50.102;19.958;2024-03-29T05:39:51;3.10;;;1.30;;
68509;SDS011;55512;50.102;19.958;2024-03-29T05:42:30;4.90;;;1.30;;
68509;SDS011;55512;50.102;19.958;2024-03-29T05:44:57;5.00;;;1.50;;
68509;SDS011;55512;50.102;19.958;2024-03-29T05:47:23;3.40;;;1.10;;
68509;SDS011;55512;50.102;19.958;2024-03-29T05:49:49;3.00;;;1.20;;
68509;SDS011;55512;50.102;19.958;2024-03-29T05:52:15;5.80;;;1.40;;
68509;SDS011;55512;50.102;19.958;2024-03-29T05:54:42;3.10;;;1.30;;
68509;SDS011;55512;50.102;19.958;2024-03-29T05:57:09;3.70;;;1.30;;
68509;SDS011;55512;50.102;19.958;2024-03-29T05:59:35;3.30;;;1.40;;
68509;SDS011;55512;50.102;19.958;2024-03-29T06:02:01;4.90;;;1.50;;
68509;SDS011;55512;50.102;19.958;2024-03-29T06:04:26;3.00;;;1.50;;
68509;SDS011;55512;50.102;19.958;2024-03-29T06:06:58;2.50;;;1.20;;
68509;SDS011;55512;50.102;19.958;2024-03-29T06:09:33;4.90;;;1.70;;
68509;SDS011;55512;50.102;19.958;2024-03-29T06:11:59;4.40;;;1.60;;
68509;SDS011;55512;50.102;19.958;2024-03-29T06:14:25;3.90;;;1.50;;
68509;SDS011;55512;50.102;19.958;2024-03-29T06:17:09;3.70;;;1.70;;
68509;SDS011;55512;50.102;19.958;2024-03-29T06:19:50;3.20;;;1.30;;
68509;SDS011;55512;50.102;19.958;2024-03-29T06:22:25;3.40;;;1.10;;
68509;SDS011;55512;50.102;19.958;2024-03-29T06:24:54;4.10;;;1.10;;
68509;SDS011;55512;50.102;19.958;2024-03-29T06:27:24;4.10;;;1.80;;
68509;SDS011;55512;50.102;19.958;2024-03-29T06:29:49;3.60;;;1.10;;
68509;SDS011;55512;50.102;19.958;2024-03-29T06:32:15;3.50;;;1.00;;
68509;SDS011;55512;50.102;19.958;2024-03-29T06:34:41;3.20;;;0.90;;
68509;SDS011;55512;50.102;19.958;2024-03-29T06:37:07;3.70;;;1.10;;
68509;SDS011;55512;50.102;19.958;2024-03-29T06:39:32;2.80;;;1.10;;
68509;SDS011;55512;50.102;19.958;2024-03-29T06:41:58;4.90;;;1.40;;
68509;SDS011;55512;50.102;19.958;2024-03-29T06:44:23;2.40;;;0.80;;
68509;SDS011;55512;50.102;19.958;2024-03-29T06:46:50;2.90;;;1.00;;
68509;SDS011;55512;50.102;19.958;2024-03-29T06:49:15;3.80;;;1.10;;
68509;SDS011;55512;50.102;19.958;2024-03-29T06:51:41;3.40;;;1.00;;
68509;SDS011;55512;50.102;19.958;2024-03-29T06:54:07;2.40;;;0.90;;
68509;SDS011;55512;50.102;19.958;2024-03-29T06:56:32;2.90;;;1.00;;
68509;SDS011;55512;50.102;19.958;2024-03-29T06:58:58;2.60;;;0.90;;
68509;SDS011;55512;50.102;19.958;2024-03-29T07:01:24;3.50;;;1.00;;
68509;SDS011;55512;50.102;19.958;2024-03-29T07:03:49;3.90;;;1.20;;
68509;SDS011;55512;50.102;19.958;2024-03-29T07:06:15;2.70;;;0.90;;
68509;SDS011;55512;50.102;19.958;2024-03-29T07:08:40;2.50;;;0.90;;
68509;SDS011;55512;50.102;19.958;2024-03-29T07:11:06;3.50;;;0.90;;
68509;SDS011;55512;50.102;19.958;2024-03-29T07:13:31;2.30;;;0.90;;
68509;SDS011;55512;50.102;19.958;2024-03-29T07:15:58;2.90;;;1.00;;
68509;SDS011;55512;50.102;19.958;2024-03-29T07:18:24;2.20;;;0.70;;
68509;SDS011;55512;50.102;19.958;2024-03-29T07:20:51;4.80;;;0.90;;
68509;SDS011;55512;50.102;19.958;2024-03-29T07:23:17;2.30;;;0.90;;
68509;SDS011;55512;50.102;19.958;2024-03-29T07:26:05;3.30;;;1.10;;
68509;SDS011;55512;50.102;19.958;2024-03-29T07:28:31;4.10;;;1.00;;
68509;SDS011;55512;50.102;19.958;2024-03-29T07:30:57;4.30;;;1.10;;
68509;SDS011;55512;50.102;19.958;2024-03-29T07:33:23;3.90;;;0.90;;
68509;SDS011;55512;50.102;19.958;2024-03-29T07:35:53;5.20;;;1.20;;
68509;SDS011;55512;50.102;19.958;2024-03-29T07:38:20;3.00;;;1.00;;
68509;SDS011;55512;50.102;19.958;2024-03-29T07:40:49;2.10;;;0.70;;
68509;SDS011;55512;50.102;19.958;2024-03-29T07:43:15;1.60;;;0.50;;
68509;SDS011;55512;50.102;19.958;2024-03-29T07:45:42;2.40;;;0.60;;
68509;SDS011;55512;50.102;19.958;2024-03-29T07:48:12;2.30;;;0.70;;
68509;SDS011;55512;50.102;19.958;2024-03-29T07:50:39;2.40;;;0.80;;
68509;SDS011;55512;50.102;19.958;2024-03-29T07:53:11;1.90;;;0.60;;
68509;SDS011;55512;50.102;19.958;2024-03-29T07:55:39;2.10;;;0.60;;
68509;SDS011;55512;50.102;19.958;2024-03-29T07:58:06;2.80;;;0.60;;
68509;SDS011;55512;50.102;19.958;2024-03-29T08:00:34;1.30;;;0.70;;
68509;SDS011;55512;50.102;19.958;2024-03-29T08:03:00;2.80;;;0.70;;
68509;SDS011;55512;50.102;19.958;2024-03-29T08:05:29;2.10;;;0.60;;
68509;SDS011;55512;50.102;19.958;2024-03-29T08:07:54;1.90;;;0.60;;
68509;SDS011;55512;50.102;19.958;2024-03-29T08:10:20;2.90;;;0.60;;
68509;SDS011;55512;50.102;19.958;2024-03-29T08:12:46;1.70;;;0.60;;
68509;SDS011;55512;50.102;19.958;2024-03-29T08:15:11;2.80;;;0.60;;
68509;SDS011;55512;50.102;19.958;2024-03-29T08:17:36;3.10;;;0.70;;
68509;SDS011;55512;50.102;19.958;2024-03-29T08:20:03;1.20;;;0.50;;
68509;SDS011;55512;50.102;19.958;2024-03-29T08:22:29;1.70;;;0.50;;
68509;SDS011;55512;50.102;19.958;2024-03-29T08:24:57;2.00;;;0.50;;
68509;SDS011;55512;50.102;19.958;2024-03-29T08:27:22;2.90;;;0.60;;
68509;SDS011;55512;50.102;19.958;2024-03-29T08:29:48;1.60;;;0.60;;
68509;SDS011;55512;50.102;19.958;2024-03-29T08:32:15;1.00;;;0.50;;
68509;SDS011;55512;50.102;19.958;2024-03-29T08:34:41;2.70;;;0.60;;
68509;SDS011;55512;50.102;19.958;2024-03-29T08:37:06;1.70;;;0.60;;
68509;SDS011;55512;50.102;19.958;2024-03-29T08:39:32;2.20;;;0.90;;
68509;SDS011;55512;50.102;19.958;2024-03-29T08:41:58;3.60;;;0.50;;
68509;SDS011;55512;50.102;19.958;2024-03-29T08:44:24;3.80;;;0.60;;
68509;SDS011;55512;50.102;19.958;2024-03-29T08:46:50;1.10;;;0.50;;
68509;SDS011;55512;50.102;19.958;2024-03-29T08:49:16;1.70;;;0.50;;
68509;SDS011;55512;50.102;19.958;2024-03-29T08:51:42;1.90;;;0.60;;
68509;SDS011;55512;50.102;19.958;2024-03-29T08:54:07;4.50;;;1.30;;
68509;SDS011;55512;50.102;19.958;2024-03-29T08:56:32;4.00;;;1.10;;
68509;SDS011;55512;50.102;19.958;2024-03-29T08:59:02;1.70;;;0.60;;
68509;SDS011;55512;50.102;19.958;2024-03-29T09:01:32;3.10;;;0.70;;
68509;SDS011;55512;50.102;19.958;2024-03-29T09:03:58;2.60;;;0.60;;
68509;SDS011;55512;50.102;19.958;2024-03-29T09:06:24;2.30;;;0.50;;
68509;SDS011;55512;50.102;19.958;2024-03-29T09:08:49;2.00;;;0.60;;
68509;SDS011;55512;50.102;19.958;2024-03-29T09:11:15;1.80;;;0.50;;
68509;SDS011;55512;50.102;19.958;2024-03-29T09:13:40;2.00;;;0.50;;
68509;SDS011;55512;50.102;19.958;2024-03-29T09:16:06;5.10;;;0.80;;
68509;SDS011;55512;50.102;19.958;2024-03-29T09:18:31;2.50;;;0.60;;
68509;SDS011;55512;50.102;19.958;2024-03-29T09:21:00;1.90;;;0.60;;
68509;SDS011;55512;50.102;19.958;2024-03-29T09:23:27;2.10;;;0.60;;
68509;SDS011;55512;50.102;19.958;2024-03-29T09:25:54;1.70;;;0.50;;
68509;SDS011;55512;50.102;19.958;2024-03-29T09:28:23;1.00;;;0.40;;
68509;SDS011;55512;50.102;19.958;2024-03-29T09:30:49;2.00;;;0.50;;
68509;SDS011;55512;50.102;19.958;2024-03-29T09:33:15;2.30;;;0.70;;
68509;SDS011;55512;50.102;19.958;2024-03-29T09:35:40;2.60;;;0.60;;
68509;SDS011;55512;50.102;19.958;2024-03-29T09:38:06;2.20;;;0.60;;
68509;SDS011;55512;50.102;19.958;2024-03-29T09:40:32;1.90;;;0.60;;
68509;SDS011;55512;50.102;19.958;2024-03-29T09:43:00;2.00;;;0.60;;
68509;SDS011;55512;50.102;19.958;2024-03-29T09:45:33;1.80;;;0.50;;
68509;SDS011;55512;50.102;19.958;2024-03-29T09:48:03;1.00;;;0.40;;
68509;SDS011;55512;50.102;19.958;2024-03-29T09:50:31;2.30;;;0.60;;
68509;SDS011;55512;50.102;19.958;2024-03-29T09:52:58;1.50;;;0.60;;
68509;SDS011;55512;50.102;19.958;2024-03-29T09:55:24;1.50;;;0.50;;
68509;SDS011;55512;50.102;19.958;2024-03-29T09:57:50;1.40;;;0.40;;
68509;SDS011;55512;50.102;19.958;2024-03-29T10:00:16;1.30;;;0.60;;
68509;SDS011;55512;50.102;19.958;2024-03-29T10:02:43;1.10;;;0.50;;
68509;SDS011;55512;50.102;19.958;2024-03-29T10:05:11;0.80;;;0.50;;
68509;SDS011;55512;50.102;19.958;2024-03-29T10:07:38;1.50;;;0.50;;
68509;SDS011;55512;50.102;19.958;2024-03-29T10:10:05;1.90;;;0.50;;
68509;SDS011;55512;50.102;19.958;2024-03-29T10:12:31;1.90;;;0.70;;
68509;SDS011;55512;50.102;19.958;2024-03-29T10:14:56;2.00;;;0.50;;
68509;SDS011;55512;50.102;19.958;2024-03-29T10:17:34;1.50;;;0.60;;
68509;SDS011;55512;50.102;19.958;2024-03-29T10:20:01;2.90;;;0.80;;
68509;SDS011;55512;50.102;19.958;2024-03-29T10:22:28;3.50;;;0.60;;
68509;SDS011;55512;50.102;19.958;2024-03-29T10:24:57;3.20;;;0.70;;
68509;SDS011;55512;50.102;19.958;2024-03-29T10:27:27;1.00;;;0.40;;
68509;SDS011;55512;50.102;19.958;2024-03-29T10:29:53;1.70;;;0.70;;
68509;SDS011;55512;50.102;19.958;2024-03-29T10:32:19;1.30;;;0.50;;
68509;SDS011;55512;50.102;19.958;2024-03-29T10:34:44;2.90;;;0.50;;
68509;SDS011;55512;50.102;19.958;2024-03-29T10:37:10;1.80;;;0.50;;
68509;SDS011;55512;50.102;19.958;2024-03-29T10:39:36;1.00;;;0.50;;
68509;SDS011;55512;50.102;19.958;2024-03-29T10:42:01;2.40;;;0.50;;
68509;SDS011;55512;50.102;19.958;2024-03-29T10:44:30;1.60;;;0.50;;
68509;SDS011;55512;50.102;19.958;2024-03-29T10:46:59;1.30;;;0.50;;
68509;SDS011;55512;50.102;19.958;2024-03-29T10:49:27;1.90;;;0.70;;
68509;SDS011;55512;50.102;19.958;2024-03-29T10:51:57;1.50;;;0.60;;
68509;SDS011;55512;50.102;19.958;2024-03-29T10:54:24;1.50;;;0.40;;
68509;SDS011;55512;50.102;19.958;2024-03-29T10:57:00;1.90;;;0.60;;
68509;SDS011;55512;50.102;19.958;2024-03-29T10:59:44;1.80;;;0.60;;
68509;SDS011;55512;50.102;19.958;2024-03-29T11:02:35;4.10;;;1.40;;
68509;SDS011;55512;50.102;19.958;2024-03-29T11:05:12;1.50;;;0.40;;
68509;SDS011;55512;50.102;19.958;2024-03-29T11:07:42;1.20;;;0.50;;
68509;SDS011;55512;50.102;19.958;2024-03-29T11:10:13;1.40;;;0.60;;
68509;SDS011;55512;50.102;19.958;2024-03-29T11:15:37;1.70;;;0.60;;
68509;SDS011;55512;50.102;19.958;2024-03-29T11:18:07;1.00;;;0.50;;
68509;SDS011;55512;50.102;19.958;2024-03-29T11:20:35;1.60;;;0.50;;
68509;SDS011;55512;50.102;19.958;2024-03-29T11:23:10;3.20;;;0.70;;
68509;SDS011;55512;50.102;19.958;2024-03-29T11:25:51;2.70;;;1.00;;
68509;SDS011;55512;50.102;19.958;2024-03-29T11:28:34;3.20;;;1.30;;
68509;SDS011;55512;50.102;19.958;2024-03-29T11:31:05;4.50;;;1.20;;
68509;SDS011;55512;50.102;19.958;2024-03-29T11:36:15;1.80;;;0.80;;
68509;SDS011;55512;50.102;19.958;2024-03-29T11:38:45;1.70;;;0.70;;
68509;SDS011;55512;50.102;19.958;2024-03-29T11:41:13;2.00;;;0.50;;
68509;SDS011;55512;50.102;19.958;2024-03-29T11:43:40;0.70;;;0.40;;
68509;SDS011;55512;50.102;19.958;2024-03-29T11:46:09;1.30;;;0.70;;
68509;SDS011;55512;50.102;19.958;2024-03-29T11:48:36;2.40;;;0.60;;
68509;SDS011;55512;50.102;19.958;2024-03-29T11:51:03;2.60;;;0.50;;
68509;SDS011;55512;50.102;19.958;2024-03-29T11:53:30;1.10;;;0.40;;
68509;SDS011;55512;50.102;19.958;2024-03-29T11:56:00;1.70;;;0.40;;
68509;SDS011;55512;50.102;19.958;2024-03-29T11:58:28;1.50;;;0.70;;
68509;SDS011;55512;50.102;19.958;2024-03-29T12:00:56;1.10;;;0.40;;
68509;SDS011;55512;50.102;19.958;2024-03-29T12:03:26;2.50;;;0.70;;
68509;SDS011;55512;50.102;19.958;2024-03-29T12:05:53;2.10;;;0.50;;
68509;SDS011;55512;50.102;19.958;2024-03-29T12:08:28;0.90;;;0.40;;
68509;SDS011;55512;50.102;19.958;2024-03-29T12:10:55;1.00;;;0.40;;
68509;SDS011;55512;50.102;19.958;2024-03-29T12:13:20;1.20;;;0.50;;
68509;SDS011;55512;50.102;19.958;2024-03-29T12:15:46;1.00;;;0.40;;
68509;SDS011;55512;50.102;19.958;2024-03-29T12:18:11;1.20;;;0.30;;
68509;SDS011;55512;50.102;19.958;2024-03-29T12:20:40;1.10;;;0.50;;
68509;SDS011;55512;50.102;19.958;2024-03-29T12:23:08;1.80;;;0.50;;
68509;SDS011;55512;50.102;19.958;2024-03-29T12:25:37;1.80;;;0.40;;
68509;SDS011;55512;50.102;19.958;2024-03-29T12:28:03;2.40;;;0.50;;
68509;SDS011;55512;50.102;19.958;2024-03-29T12:30:29;1.60;;;0.50;;
68509;SDS011;55512;50.102;19.958;2024-03-29T12:33:06;0.50;;;0.40;;
68509;SDS011;55512;50.102;19.958;2024-03-29T12:35:34;0.50;;;0.40;;
68509;SDS011;55512;50.102;19.958;2024-03-29T12:38:02;1.60;;;0.50;;
68509;SDS011;55512;50.102;19.958;2024-03-29T12:40:30;3.00;;;0.60;;
68509;SDS011;55512;50.102;19.958;2024-03-29T12:43:02;1.50;;;0.40;;
68509;SDS011;55512;50.102;19.958;2024-03-29T12:45:36;0.60;;;0.40;;
68509;SDS011;55512;50.102;19.958;2024-03-29T12:48:10;2.30;;;0.50;;
68509;SDS011;55512;50.102;19.958;2024-03-29T12:50:39;1.40;;;0.60;;
68509;SDS011;55512;50.102;19.958;2024-03-29T12:53:07;1.60;;;0.50;;
68509;SDS011;55512;50.102;19.958;2024-03-29T12:55:35;1.00;;;0.50;;
68509;SDS011;55512;50.102;19.958;2024-03-29T12:58:03;0.60;;;0.40;;
68509;SDS011;55512;50.102;19.958;2024-03-29T13:00:40;2.10;;;0.60;;
68509;SDS011;55512;50.102;19.958;2024-03-29T13:03:06;2.20;;;0.50;;
68509;SDS011;55512;50.102;19.958;2024-03-29T13:05:34;2.30;;;0.40;;
68509;SDS011;55512;50.102;19.958;2024-03-29T13:08:05;1.00;;;0.50;;
68509;SDS011;55512;50.102;19.958;2024-03-29T13:10:32;2.50;;;0.60;;
68509;SDS011;55512;50.102;19.958;2024-03-29T13:12:57;2.30;;;0.70;;
68509;SDS011;55512;50.102;19.958;2024-03-29T13:15:24;1.90;;;0.60;;
68509;SDS011;55512;50.102;19.958;2024-03-29T13:17:53;1.30;;;0.50;;
68509;SDS011;55512;50.102;19.958;2024-03-29T13:20:21;1.40;;;0.60;;
68509;SDS011;55512;50.102;19.958;2024-03-29T13:22:48;2.00;;;0.50;;
68509;SDS011;55512;50.102;19.958;2024-03-29T13:25:16;2.00;;;0.60;;
68509;SDS011;55512;50.102;19.958;2024-03-29T13:27:43;1.20;;;0.60;;
68509;SDS011;55512;50.102;19.958;2024-03-29T13:30:11;2.40;;;0.50;;
68509;SDS011;55512;50.102;19.958;2024-03-29T13:32:41;1.70;;;0.60;;
68509;SDS011;55512;50.102;19.958;2024-03-29T13:35:09;2.40;;;0.50;;
68509;SDS011;55512;50.102;19.958;2024-03-29T13:37:44;1.90;;;0.50;;
68509;SDS011;55512;50.102;19.958;2024-03-29T13:40:13;3.00;;;0.60;;
68509;SDS011;55512;50.102;19.958;2024-03-29T13:42:40;2.30;;;0.70;;
68509;SDS011;55512;50.102;19.958;2024-03-29T13:45:07;3.20;;;0.70;;
68509;SDS011;55512;50.102;19.958;2024-03-29T13:47:36;1.50;;;0.60;;
68509;SDS011;55512;50.102;19.958;2024-03-29T13:50:04;2.90;;;0.70;;
68509;SDS011;55512;50.102;19.958;2024-03-29T13:52:29;2.60;;;0.70;;
68509;SDS011;55512;50.102;19.958;2024-03-29T13:54:55;2.20;;;0.80;;
68509;SDS011;55512;50.102;19.958;2024-03-29T13:57:21;3.50;;;0.60;;
68509;SDS011;55512;50.102;19.958;2024-03-29T13:59:46;2.10;;;0.60;;
68509;SDS011;55512;50.102;19.958;2024-03-29T14:02:15;2.40;;;0.80;;
68509;SDS011;55512;50.102;19.958;2024-03-29T14:04:42;2.30;;;0.90;;
68509;SDS011;55512;50.102;19.958;2024-03-29T14:07:10;2.90;;;1.00;;
68509;SDS011;55512;50.102;19.958;2024-03-29T14:09:37;2.30;;;0.50;;
68509;SDS011;55512;50.102;19.958;2024-03-29T14:12:03;2.70;;;0.80;;
68509;SDS011;55512;50.102;19.958;2024-03-29T14:14:30;2.70;;;0.70;;
68509;SDS011;55512;50.102;19.958;2024-03-29T14:16:56;1.30;;;0.70;;
68509;SDS011;55512;50.102;19.958;2024-03-29T14:19:22;2.30;;;0.60;;
68509;SDS011;55512;50.102;19.958;2024-03-29T14:21:48;2.20;;;0.50;;
68509;SDS011;55512;50.102;19.958;2024-03-29T14:24:13;2.50;;;0.80;;
68509;SDS011;55512;50.102;19.958;2024-03-29T14:26:40;1.80;;;0.70;;
68509;SDS011;55512;50.102;19.958;2024-03-29T14:29:07;3.10;;;1.00;;
68509;SDS011;55512;50.102;19.958;2024-03-29T14:31:33;2.30;;;0.70;;
68509;SDS011;55512;50.102;19.958;2024-03-29T14:33:59;3.30;;;1.00;;
68509;SDS011;55512;50.102;19.958;2024-03-29T14:36:25;2.40;;;0.80;;
68509;SDS011;55512;50.102;19.958;2024-03-29T14:38:50;2.80;;;0.70;;